Oak Park, IL (60303)

1:16 PM CDT on August 29, 2016 (GMT -0500)
Oak Park | | Change Station

Elev 633 ft 41.90 °N, 87.78 °W | Updated 6 seconds ago

Mostly Cloudy
Mostly Cloudy
87.4 °F
Feels Like 93 °F
N
0.0
Wind Variable Wind from East
Gusts 2.0 mph

Today
High -- | Low -- °F
--% Chance of Precip.
Yesterday
High -- | Low -- °F
Precip. -- in
Pressure 30.20 in
Visibility 10.0 miles
Clouds Few 4000 ft
Scattered Clouds 5500 ft
Mostly Cloudy 18000 ft
Mostly Cloudy 25000 ft
Heat Index 93 °F
Dew Point 71 °F
Humidity 58%
Rainfall 0.00 in
Snow Depth Not available.
6:14 AM 7:28 PM
Waning Crescent, 7% visible
METAR KMDW 291753Z VRB04KT 10SM FEW040 SCT055 BKN180 BKN250 31/21 A3023 RMK AO2 SLP225 T03110206 10311 20233 58003
Pressure 30.20 in
Visibility 10.0 miles
Clouds Few 4000 ft
Scattered Clouds 5500 ft
Mostly Cloudy 18000 ft
Mostly Cloudy 25000 ft
Heat Index 93 °F
Dew Point 71 °F
Humidity 58%
Rainfall 0.00 in
Snow Depth Not available.
6:14 AM 7:28 PM
Waning Crescent, 7% visible
METAR KMDW 291753Z VRB04KT 10SM FEW040 SCT055 BKN180 BKN250 31/21 A3023 RMK AO2 SLP225 T03110206 10311 20233 58003

10-Day Weather Forecast

Almanac

Astronomy

Aug. 29, 2016 Rise Set
Actual Time
Civil Twilight
Nautical Twilight
Astronomical Twilight
Moon
Length of Visible Light
Length of Day
Tomorrow will be .
, % of the Moon is Illuminated

Today's Extremes

State Highs State Lows

Community

WunderPhotos

Upload Photos

1,935,685 photos uploaded!

WunderBlog® & News

Nearby

Air Quality

  Air Quality AQ Index Pollutant
Not available.

Snow Depth

Station Depth Elevation

Earthquake Activity

City Distance Mag. Time & Date
Minimum magnitude displayed is 2.5.

Coastal Water Temperatures

Place Temperature

Stations

Nearby Weather Stations

Station Location Temp. Windchill Dew Point Humidity Wind Precip. Elev Updated Type
                   

Watches & Warnings

There are currently no watches in effect.